createdAt,value
2019-04-05T00:16:22.984Z,86.25
2019-04-05T00:21:28.946Z,85.88
2019-04-05T00:26:34.381Z,85.19
2019-04-05T00:31:39.710Z,84.88
2019-04-05T00:36:45.084Z,84.73
2019-04-05T00:41:50.465Z,84.92
2019-04-05T00:46:55.737Z,85.21
2019-04-05T00:52:00.924Z,85.96
2019-04-05T00:57:06.122Z,86.32
2019-04-05T01:02:11.363Z,86.44
2019-04-05T01:07:16.810Z,86.77
2019-04-05T01:12:24.722Z,86.52
2019-04-05T01:17:30.351Z,86.29
2019-04-05T01:22:36.651Z,86.47
2019-04-05T01:27:42.450Z,86.60
2019-04-05T01:32:47.917Z,86.19
2019-04-05T01:37:54.036Z,86.45
2019-04-05T01:42:59.556Z,86.64
2019-04-05T01:48:04.902Z,86.59
2019-04-05T01:53:10.261Z,86.55
2019-04-05T01:58:15.674Z,86.36
2019-04-05T02:03:20.821Z,86.15
2019-04-05T02:08:26.316Z,86.33
2019-04-05T02:13:31.466Z,86.53
2019-04-05T02:18:36.722Z,86.43
2019-04-05T02:23:42.006Z,86.30
2019-04-05T02:28:47.556Z,87.01
2019-04-05T02:33:52.997Z,87.00
2019-04-05T02:38:58.238Z,87.37
2019-04-05T02:44:03.809Z,87.62
2019-04-05T02:49:09.975Z,87.36
2019-04-05T02:54:16.796Z,87.15
2019-04-05T02:59:22.367Z,86.82
2019-04-05T03:04:27.851Z,86.46
2019-04-05T03:09:33.351Z,86.91
2019-04-05T03:14:39.322Z,87.24
2019-04-05T03:19:46.579Z,87.10
2019-04-05T03:24:52.283Z,87.25
2019-04-05T03:29:57.918Z,87.00
2019-04-05T03:35:03.837Z,86.71
2019-04-05T03:40:09.137Z,86.44
2019-04-05T03:45:14.594Z,85.92
2019-04-05T03:50:20.058Z,85.86
2019-04-05T03:55:25.340Z,85.64
2019-04-05T04:00:31.051Z,85.11
2019-04-05T04:05:36.270Z,85.17
2019-04-05T04:10:41.625Z,85.20
2019-04-05T04:15:47.150Z,85.55
2019-04-05T04:20:55.065Z,86.28
2019-04-05T04:26:02.281Z,86.53
2019-04-05T04:31:07.998Z,86.36
2019-04-05T04:36:13.429Z,85.89
2019-04-05T04:41:19.099Z,86.01
2019-04-05T04:46:24.647Z,87.38
2019-04-05T04:51:30.212Z,87.77
2019-04-05T04:56:35.567Z,88.73
2019-04-05T05:01:40.955Z,88.27
2019-04-05T05:06:46.311Z,88.02
2019-04-05T05:11:51.825Z,87.88
2019-04-05T05:16:57.336Z,87.74
2019-04-05T05:22:02.762Z,87.40
2019-04-05T05:27:08.096Z,87.81
2019-04-05T05:32:13.656Z,88.15
2019-04-05T05:37:20.275Z,88.22
2019-04-05T05:42:25.551Z,88.19
2019-04-05T05:47:30.712Z,87.89
2019-04-05T05:52:36.712Z,87.91
2019-04-05T05:57:41.861Z,87.76
2019-04-05T06:02:48.402Z,88.05
2019-04-05T06:07:53.973Z,87.69
2019-04-05T06:12:59.186Z,87.59
2019-04-05T06:18:05.227Z,87.28
2019-04-05T06:23:10.636Z,86.89
2019-04-05T06:28:15.897Z,87.01
2019-04-05T06:33:31.423Z,87.68
2019-04-05T06:38:29.246Z,87.70
2019-04-05T06:43:34.539Z,87.60
2019-04-05T06:48:39.862Z,87.60
2019-04-05T06:53:45.101Z,87.28
2019-04-05T06:58:50.289Z,88.47
2019-04-05T07:03:55.733Z,90.71
2019-04-05T07:09:01.086Z,91.42
2019-04-05T07:14:06.377Z,92.18
2019-04-05T07:19:11.783Z,92.93
2019-04-05T07:24:19.989Z,93.15
2019-04-05T07:29:25.431Z,92.92
2019-04-05T07:34:30.716Z,93.09
2019-04-05T07:39:36.162Z,93.16
2019-04-05T07:44:41.534Z,93.21
2019-04-05T07:49:46.718Z,92.42
2019-04-05T07:54:53.436Z,92.79
2019-04-05T07:59:58.635Z,91.94
2019-04-05T08:05:06.352Z,91.54
2019-04-05T08:10:12.706Z,91.16
2019-04-05T08:15:18.251Z,90.70
2019-04-05T08:20:25.341Z,89.91
2019-04-05T08:25:31.073Z,89.04
2019-04-05T08:30:37.086Z,88.51
2019-04-05T08:35:42.492Z,88.29
2019-04-05T08:40:47.752Z,88.08
2019-04-05T08:45:52.973Z,87.93
2019-04-05T08:50:58.316Z,87.67
2019-04-05T08:56:03.835Z,86.95
2019-04-05T09:01:09.453Z,86.06
2019-04-05T09:06:14.977Z,85.30
2019-04-05T09:11:21.250Z,85.47
2019-04-05T09:16:26.411Z,85.07
2019-04-05T09:21:32.006Z,84.45
2019-04-05T09:26:37.270Z,83.72
2019-04-05T09:31:42.711Z,82.57
2019-04-05T09:36:49.160Z,82.29
2019-04-05T09:41:54.284Z,82.69
2019-04-05T09:46:59.570Z,82.56
2019-04-05T09:52:04.806Z,82.71
2019-04-05T09:57:10.063Z,81.06
2019-04-05T10:02:15.262Z,78.11
2019-04-05T10:07:20.561Z,75.46
2019-04-05T10:12:26.000Z,76.48
2019-04-05T10:17:31.289Z,76.22
2019-04-05T10:22:36.894Z,76.97
2019-04-05T10:27:42.218Z,77.81
2019-04-05T10:32:47.623Z,79.25
2019-04-05T10:37:53.921Z,80.74
2019-04-05T10:42:59.092Z,81.47
2019-04-05T10:48:04.657Z,82.50
2019-04-05T10:53:10.027Z,79.99
2019-04-05T10:58:15.382Z,79.60
2019-04-05T11:03:20.529Z,77.90
2019-04-05T11:08:25.822Z,74.89
2019-04-05T11:13:31.216Z,73.61
2019-04-05T11:18:36.513Z,73.45
2019-04-05T11:23:41.820Z,72.96
2019-04-05T11:28:47.149Z,76.96
2019-04-05T11:33:52.652Z,75.67
2019-04-05T11:38:58.238Z,73.43
2019-04-05T11:44:06.597Z,73.53
2019-04-05T11:49:13.713Z,72.69
2019-04-05T11:54:19.087Z,73.26
2019-04-05T11:59:24.268Z,75.76
2019-04-05T12:04:30.222Z,77.76
2019-04-05T12:09:35.623Z,75.39
2019-04-05T12:14:41.430Z,73.96
2019-04-05T12:19:47.103Z,74.99
2019-04-05T12:24:52.446Z,75.00
2019-04-05T12:29:57.784Z,80.62
2019-04-05T12:35:03.262Z,86.99
2019-04-05T12:40:10.389Z,90.51
2019-04-05T12:45:16.265Z,93.51
2019-04-05T12:50:21.563Z,90.82
2019-04-05T12:55:26.998Z,92.86
2019-04-05T13:05:51.179Z,92.57
2019-04-05T13:11:02.017Z,92.31
2019-04-05T13:16:09.800Z,91.71
2019-04-05T13:21:15.437Z,93.97
2019-04-05T13:26:21.184Z,94.87
2019-04-05T13:31:26.600Z,95.38
2019-04-05T13:36:32.243Z,96.71
2019-04-05T13:41:37.726Z,95.16
2019-04-05T13:46:46.053Z,95.46
2019-04-05T13:51:51.283Z,93.59
2019-04-05T13:56:56.750Z,91.22
2019-04-05T14:02:06.181Z,91.54
2019-04-05T14:07:09.762Z,88.52
2019-04-05T14:12:15.073Z,87.65
2019-04-05T14:17:20.623Z,84.68
2019-04-05T14:22:25.950Z,83.12
2019-04-05T14:27:34.918Z,83.87
2019-04-05T14:32:38.304Z,87.33
2019-04-05T14:37:43.805Z,91.19
2019-04-05T14:42:51.987Z,92.26
2019-04-05T14:47:58.528Z,93.89
2019-04-05T14:53:04.364Z,91.65
2019-04-05T14:58:10.724Z,91.25
2019-04-05T15:03:17.704Z,90.30
2019-04-05T15:08:23.048Z,89.62
2019-04-05T15:13:28.844Z,89.05
2019-04-05T15:18:34.677Z,88.67
2019-04-05T15:23:41.371Z,88.60
2019-04-05T15:28:47.046Z,87.05
2019-04-05T15:33:55.634Z,84.10
2019-04-05T15:39:02.375Z,82.04
2019-04-05T15:44:07.961Z,83.99
2019-04-05T15:49:13.249Z,82.66
2019-04-05T15:54:18.637Z,82.29
2019-04-05T15:59:27.003Z,84.48
2019-04-05T16:04:32.363Z,85.91
2019-04-05T16:09:38.063Z,86.70
2019-04-05T16:14:43.418Z,85.84
2019-04-05T16:19:48.856Z,85.70
2019-04-05T16:24:54.262Z,87.07
2019-04-05T16:29:59.682Z,87.33
2019-04-05T16:35:05.350Z,87.18
2019-04-05T16:40:11.504Z,86.97
2019-04-05T16:45:20.223Z,85.91
2019-04-05T16:50:25.643Z,86.47
2019-04-05T16:55:31.423Z,85.99
2019-04-05T17:00:36.789Z,85.96
2019-04-05T17:05:42.048Z,86.89
2019-04-05T17:10:47.518Z,87.49
2019-04-05T17:15:55.318Z,87.46
2019-04-05T17:21:00.663Z,87.45
2019-04-05T17:26:06.118Z,88.63
2019-04-05T17:31:11.540Z,88.44
2019-04-05T17:36:16.980Z,89.51
2019-04-05T17:41:22.524Z,90.18
2019-04-05T17:46:27.819Z,90.57
2019-04-05T17:51:36.382Z,90.47
2019-04-05T17:56:41.884Z,90.81
2019-04-05T18:01:47.497Z,90.78
2019-04-05T18:06:53.044Z,90.79
2019-04-05T18:11:58.327Z,90.75
2019-04-05T18:17:03.971Z,90.68
2019-04-05T18:22:10.923Z,90.55
2019-04-05T18:27:16.578Z,90.39
2019-04-05T18:32:23.162Z,90.34
2019-04-05T18:37:28.749Z,90.25
2019-04-05T18:42:34.103Z,90.42
2019-04-05T18:47:39.598Z,90.71
2019-04-05T18:52:45.223Z,91.04
2019-04-05T18:57:50.650Z,91.16
2019-04-05T19:02:56.103Z,91.47
2019-04-05T19:08:01.404Z,91.70
2019-04-05T19:13:06.883Z,91.94
2019-04-05T19:18:13.648Z,91.84
2019-04-05T19:23:19.345Z,91.49
2019-04-05T19:28:26.003Z,91.49
2019-04-05T19:48:52.739Z,91.67
2019-04-05T19:54:01.438Z,91.89
2019-04-05T19:59:06.634Z,92.09
2019-04-05T20:04:11.942Z,92.17
2019-04-05T20:09:17.918Z,92.22
2019-04-05T20:14:23.709Z,92.12
2019-04-05T20:19:29.200Z,92.33
2019-04-05T20:24:34.699Z,92.57
2019-04-05T20:29:40.078Z,93.06
2019-04-05T20:34:48.315Z,93.46
2019-04-05T20:39:53.724Z,93.46
2019-04-05T20:44:59.501Z,94.11
2019-04-05T20:50:05.902Z,94.58
2019-04-05T20:55:13.402Z,93.91
2019-04-05T21:00:22.064Z,93.50
2019-04-05T21:05:27.503Z,94.60
2019-04-05T21:10:32.744Z,94.60
2019-04-05T21:15:38.070Z,94.04
2019-04-05T21:20:43.294Z,93.99
2019-04-05T21:25:48.604Z,93.85
2019-04-05T21:30:53.944Z,94.02
2019-04-05T21:35:59.377Z,93.76
2019-04-05T21:41:04.785Z,93.06
2019-04-05T21:46:12.650Z,92.80
2019-04-05T21:51:18.070Z,92.75
2019-04-05T21:56:23.503Z,92.65
2019-04-05T22:01:28.923Z,92.72
2019-04-05T22:06:37.490Z,93.27
2019-04-05T22:11:42.949Z,92.80
2019-04-05T22:16:48.326Z,93.34
2019-04-05T22:21:54.208Z,93.79
2019-04-05T22:26:59.508Z,94.43
2019-04-05T22:32:04.689Z,95.03
2019-04-05T22:37:10.050Z,95.09
2019-04-05T22:42:15.404Z,93.99
2019-04-05T22:47:20.582Z,93.31
2019-04-05T22:52:25.724Z,93.25
2019-04-05T22:57:31.050Z,93.83
2019-04-05T23:02:36.281Z,93.38
2019-04-05T23:07:41.539Z,93.84
2019-04-05T23:12:46.879Z,94.53
2019-04-05T23:17:52.292Z,94.80
2019-04-05T23:22:57.474Z,95.25
2019-04-05T23:28:02.824Z,95.16
2019-04-05T23:33:08.184Z,95.37
2019-04-05T23:38:13.474Z,95.39
2019-04-05T23:43:18.690Z,95.62
2019-04-05T23:48:24.309Z,95.57
2019-04-05T23:53:29.635Z,95.75
2019-04-05T23:58:34.883Z,95.10
